sensor_id;sensor_type;location;lat;lon;timestamp;pressure;altitude;pressure_sealevel;temperature;humidity
53647;BME280;39550;52.230;5.194;2023-04-19T00:00:27;102716.75;;;9.84;70.12
53647;BME280;39550;52.230;5.194;2023-04-19T00:02:53;102714.06;;;9.83;70.05
53647;BME280;39550;52.230;5.194;2023-04-19T00:05:18;102703.66;;;9.80;70.00
53647;BME280;39550;52.230;5.194;2023-04-19T00:07:46;102701.13;;;9.81;70.32
53647;BME280;39550;52.230;5.194;2023-04-19T00:10:11;102711.44;;;9.81;70.28
53647;BME280;39550;52.230;5.194;2023-04-19T00:12:37;102702.53;;;9.73;70.08
53647;BME280;39550;52.230;5.194;2023-04-19T00:15:02;102709.69;;;9.80;70.43
53647;BME280;39550;52.230;5.194;2023-04-19T00:17:28;102709.63;;;9.79;70.47
53647;BME280;39550;52.230;5.194;2023-04-19T00:19:53;102708.75;;;9.78;70.69
53647;BME280;39550;52.230;5.194;2023-04-19T00:22:19;102707.81;;;9.76;70.84
53647;BME280;39550;52.230;5.194;2023-04-19T00:24:44;102710.31;;;9.75;70.66
53647;BME280;39550;52.230;5.194;2023-04-19T00:27:09;102718.88;;;9.74;70.37
53647;BME280;39550;52.230;5.194;2023-04-19T00:29:35;102712.81;;;9.73;70.59
53647;BME280;39550;52.230;5.194;2023-04-19T00:32:00;102714.53;;;9.73;70.37
53647;BME280;39550;52.230;5.194;2023-04-19T00:34:26;102712.81;;;9.73;70.87
53647;BME280;39550;52.230;5.194;2023-04-19T00:36:51;102711.09;;;9.72;70.71
53647;BME280;39550;52.230;5.194;2023-04-19T00:39:16;102706.75;;;9.71;70.40
53647;BME280;39550;52.230;5.194;2023-04-19T00:41:42;102701.53;;;9.69;70.60
53647;BME280;39550;52.230;5.194;2023-04-19T00:44:07;102698.91;;;9.68;70.56
53647;BME280;39550;52.230;5.194;2023-04-19T00:46:33;102687.69;;;9.67;70.46
53647;BME280;39550;52.230;5.194;2023-04-19T00:48:58;102690.22;;;9.66;70.62
53647;BME280;39550;52.230;5.194;2023-04-19T00:51:24;102696.16;;;9.65;70.53
53647;BME280;39550;52.230;5.194;2023-04-19T00:53:51;102698.75;;;9.65;70.99
53647;BME280;39550;52.230;5.194;2023-04-19T00:56:17;102692.66;;;9.63;70.97
53647;BME280;39550;52.230;5.194;2023-04-19T00:58:46;102697.00;;;9.64;70.57
53647;BME280;39550;52.230;5.194;2023-04-19T01:01:12;102687.53;;;9.63;70.70
53647;BME280;39550;52.230;5.194;2023-04-19T01:03:37;102694.38;;;9.62;70.80
53647;BME280;39550;52.230;5.194;2023-04-19T01:06:02;102684.81;;;9.60;71.03
53647;BME280;39550;52.230;5.194;2023-04-19T01:08:28;102691.72;;;9.61;71.16
53647;BME280;39550;52.230;5.194;2023-04-19T01:10:53;102686.56;;;9.61;71.46
53647;BME280;39550;52.230;5.194;2023-04-19T01:13:18;102691.72;;;9.61;71.03
53647;BME280;39550;52.230;5.194;2023-04-19T01:15:44;102695.13;;;9.60;70.90
53647;BME280;39550;52.230;5.194;2023-04-19T01:18:10;102695.13;;;9.60;70.81
53647;BME280;39550;52.230;5.194;2023-04-19T01:20:35;102689.06;;;9.59;71.32
53647;BME280;39550;52.230;5.194;2023-04-19T01:23:00;102683.06;;;9.59;70.91
53647;BME280;39550;52.230;5.194;2023-04-19T01:25:26;102685.56;;;9.57;71.47
53647;BME280;39550;52.230;5.194;2023-04-19T01:27:51;102684.69;;;9.57;71.62
53647;BME280;39550;52.230;5.194;2023-04-19T01:30:17;102680.31;;;9.54;71.03
53647;BME280;39550;52.230;5.194;2023-04-19T01:32:42;102688.09;;;9.56;71.30
53647;BME280;39550;52.230;5.194;2023-04-19T01:35:07;102682.94;;;9.56;71.52
53647;BME280;39550;52.230;5.194;2023-04-19T01:37:35;102688.09;;;9.56;71.30
53647;BME280;39550;52.230;5.194;2023-04-19T01:40:03;102685.34;;;9.52;71.90
53647;BME280;39550;52.230;5.194;2023-04-19T01:42:29;102689.69;;;9.53;71.02
53647;BME280;39550;52.230;5.194;2023-04-19T01:44:54;102690.59;;;9.54;71.21
53647;BME280;39550;52.230;5.194;2023-04-19T01:47:20;102685.34;;;9.52;71.54
53647;BME280;39550;52.230;5.194;2023-04-19T01:49:45;102687.94;;;9.52;71.25
53647;BME280;39550;52.230;5.194;2023-04-19T01:52:11;102680.09;;;9.49;71.95
53647;BME280;39550;52.230;5.194;2023-04-19T01:54:36;102690.44;;;9.51;71.52
53647;BME280;39550;52.230;5.194;2023-04-19T01:57:01;102687.81;;;9.49;71.80
53647;BME280;39550;52.230;5.194;2023-04-19T01:59:27;102686.03;;;9.48;71.91
53647;BME280;39550;52.230;5.194;2023-04-19T02:01:53;102684.31;;;9.47;71.47
53647;BME280;39550;52.230;5.194;2023-04-19T02:04:19;102682.53;;;9.46;71.50
53647;BME280;39550;52.230;5.194;2023-04-19T02:06:45;102686.03;;;9.48;72.01
53647;BME280;39550;52.230;5.194;2023-04-19T02:09:11;102683.47;;;9.48;72.11
53647;BME280;39550;52.230;5.194;2023-04-19T02:11:36;102681.69;;;9.46;71.90
53647;BME280;39550;52.230;5.194;2023-04-19T02:14:01;102689.34;;;9.44;72.28
53647;BME280;39550;52.230;5.194;2023-04-19T02:16:27;102690.25;;;9.46;71.91
53647;BME280;39550;52.230;5.194;2023-04-19T02:18:52;102691.06;;;9.45;71.51
53647;BME280;39550;52.230;5.194;2023-04-19T02:21:18;102685.81;;;9.42;71.73
53647;BME280;39550;52.230;5.194;2023-04-19T02:23:43;102677.28;;;9.43;72.13
53647;BME280;39550;52.230;5.194;2023-04-19T02:26:08;102686.66;;;9.43;72.20
53647;BME280;39550;52.230;5.194;2023-04-19T02:28:34;102678.03;;;9.41;71.94
53647;BME280;39550;52.230;5.194;2023-04-19T02:31:03;102682.44;;;9.43;72.01
53647;BME280;39550;52.230;5.194;2023-04-19T02:33:29;102673.75;;;9.41;72.26
53647;BME280;39550;52.230;5.194;2023-04-19T02:35:54;102682.38;;;9.42;72.41
53647;BME280;39550;52.230;5.194;2023-04-19T02:38:19;102684.03;;;9.41;72.30
53647;BME280;39550;52.230;5.194;2023-04-19T02:40:45;102689.19;;;9.41;72.46
53647;BME280;39550;52.230;5.194;2023-04-19T02:43:10;102687.44;;;9.40;71.86
53647;BME280;39550;52.230;5.194;2023-04-19T02:45:35;102690.81;;;9.39;71.91
53647;BME280;39550;52.230;5.194;2023-04-19T02:48:01;102691.63;;;9.38;72.02
53647;BME280;39550;52.230;5.194;2023-04-19T02:50:26;102684.78;;;9.38;72.33
53647;BME280;39550;52.230;5.194;2023-04-19T02:52:52;102694.22;;;9.38;72.17
53647;BME280;39550;52.230;5.194;2023-04-19T02:55:17;102690.81;;;9.39;72.48
53647;BME280;39550;52.230;5.194;2023-04-19T02:57:43;102693.41;;;9.39;72.53
53647;BME280;39550;52.230;5.194;2023-04-19T03:00:08;102689.88;;;9.37;71.98
53647;BME280;39550;52.230;5.194;2023-04-19T03:02:35;102697.59;;;9.37;71.95
53647;BME280;39550;52.230;5.194;2023-04-19T03:05:00;102689.75;;;9.34;72.39
53647;BME280;39550;52.230;5.194;2023-04-19T03:07:26;102691.56;;;9.36;72.12
53647;BME280;39550;52.230;5.194;2023-04-19T03:09:51;102702.72;;;9.37;72.73
53647;BME280;39550;52.230;5.194;2023-04-19T03:12:16;102699.22;;;9.35;72.30
53647;BME280;39550;52.230;5.194;2023-04-19T03:14:42;102697.47;;;9.34;72.73
53647;BME280;39550;52.230;5.194;2023-04-19T03:17:07;102693.19;;;9.34;72.30
53647;BME280;39550;52.230;5.194;2023-04-19T03:19:33;102695.69;;;9.33;72.44
53647;BME280;39550;52.230;5.194;2023-04-19T03:21:58;102687.91;;;9.31;72.24
53647;BME280;39550;52.230;5.194;2023-04-19T03:24:28;102688.88;;;9.33;72.22
53647;BME280;39550;52.230;5.194;2023-04-19T03:26:54;102693.13;;;9.33;72.51
53647;BME280;39550;52.230;5.194;2023-04-19T03:29:19;102683.66;;;9.32;72.69
53647;BME280;39550;52.230;5.194;2023-04-19T03:31:45;102689.63;;;9.31;72.21
53647;BME280;39550;52.230;5.194;2023-04-19T03:34:10;102687.84;;;9.30;72.30
53647;BME280;39550;52.230;5.194;2023-04-19T03:36:35;102681.09;;;9.32;72.83
53647;BME280;39550;52.230;5.194;2023-04-19T03:39:02;102681.91;;;9.31;72.29
53647;BME280;39550;52.230;5.194;2023-04-19T03:41:28;102680.88;;;9.27;72.50
53647;BME280;39550;52.230;5.194;2023-04-19T03:43:53;102685.28;;;9.30;72.81
53647;BME280;39550;52.230;5.194;2023-04-19T03:46:18;102675.72;;;9.27;72.89
53647;BME280;39550;52.230;5.194;2023-04-19T03:48:44;102684.25;;;9.26;72.52
53647;BME280;39550;52.230;5.194;2023-04-19T03:51:09;102678.25;;;9.26;72.95
53647;BME280;39550;52.230;5.194;2023-04-19T03:53:36;102683.38;;;9.26;73.04
53647;BME280;39550;52.230;5.194;2023-04-19T03:56:01;102686.75;;;9.25;72.33
53647;BME280;39550;52.230;5.194;2023-04-19T03:58:27;102680.75;;;9.24;72.85
53647;BME280;39550;52.230;5.194;2023-04-19T04:00:52;102678.91;;;9.22;72.74
53647;BME280;39550;52.230;5.194;2023-04-19T04:03:18;102673.72;;;9.20;72.61
53647;BME280;39550;52.230;5.194;2023-04-19T04:05:43;102688.28;;;9.19;72.98
53647;BME280;39550;52.230;5.194;2023-04-19T04:08:08;102688.28;;;9.19;73.46
53647;BME280;39550;52.230;5.194;2023-04-19T04:10:34;102687.38;;;9.19;72.69
53647;BME280;39550;52.230;5.194;2023-04-19T04:12:59;102685.72;;;9.19;72.91
53647;BME280;39550;52.230;5.194;2023-04-19T04:15:24;102685.66;;;9.18;73.04
53647;BME280;39550;52.230;5.194;2023-04-19T04:17:50;102683.88;;;9.17;72.69
53647;BME280;39550;52.230;5.194;2023-04-19T04:20:15;102691.53;;;9.15;73.23
53647;BME280;39550;52.230;5.194;2023-04-19T04:22:41;102685.44;;;9.13;72.74
53647;BME280;39550;52.230;5.194;2023-04-19T04:25:08;102687.13;;;9.13;72.95
53647;BME280;39550;52.230;5.194;2023-04-19T04:27:33;102682.00;;;9.13;72.83
53647;BME280;39550;52.230;5.194;2023-04-19T04:29:59;102682.84;;;9.13;72.65
53647;BME280;39550;52.230;5.194;2023-04-19T04:32:26;102686.22;;;9.12;73.04
53647;BME280;39550;52.230;5.194;2023-04-19T04:34:51;102682.84;;;9.13;72.88
53647;BME280;39550;52.230;5.194;2023-04-19T04:37:16;102686.22;;;9.12;72.88
53647;BME280;39550;52.230;5.194;2023-04-19T04:39:42;102681.03;;;9.11;73.60
53647;BME280;39550;52.230;5.194;2023-04-19T04:42:07;102681.94;;;9.11;73.57
53647;BME280;39550;52.230;5.194;2023-04-19T04:44:36;102683.59;;;9.11;73.20
53647;BME280;39550;52.230;5.194;2023-04-19T04:47:01;102688.69;;;9.09;72.86
53647;BME280;39550;52.230;5.194;2023-04-19T04:49:28;102686.09;;;9.09;73.61
53647;BME280;39550;52.230;5.194;2023-04-19T04:51:53;102680.97;;;9.09;73.20
53647;BME280;39550;52.230;5.194;2023-04-19T04:54:18;102682.59;;;9.07;73.48
53647;BME280;39550;52.230;5.194;2023-04-19T04:56:44;102684.34;;;9.08;73.42
53647;BME280;39550;52.230;5.194;2023-04-19T04:59:09;102685.19;;;9.07;73.00
53647;BME280;39550;52.230;5.194;2023-04-19T05:01:35;102691.13;;;9.06;73.05
53647;BME280;39550;52.230;5.194;2023-04-19T05:04:00;102692.72;;;9.04;73.13
53647;BME280;39550;52.230;5.194;2023-04-19T05:06:26;102691.00;;;9.03;73.35
53647;BME280;39550;52.230;5.194;2023-04-19T05:08:51;102671.66;;;8.92;73.19
53647;BME280;39550;52.230;5.194;2023-04-19T05:11:16;102684.81;;;8.99;72.95
53647;BME280;39550;52.230;5.194;2023-04-19T05:13:42;102695.16;;;9.01;73.00
53647;BME280;39550;52.230;5.194;2023-04-19T05:16:07;102685.72;;;9.00;73.17
53647;BME280;39550;52.230;5.194;2023-04-19T05:18:33;102681.25;;;8.96;73.19
53647;BME280;39550;52.230;5.194;2023-04-19T05:20:58;102690.72;;;8.97;73.52
53647;BME280;39550;52.230;5.194;2023-04-19T05:23:24;102697.63;;;8.98;72.92
53647;BME280;39550;52.230;5.194;2023-04-19T05:25:49;102692.47;;;8.98;72.88
53647;BME280;39550;52.230;5.194;2023-04-19T05:28:14;102696.81;;;8.99;73.16
53647;BME280;39550;52.230;5.194;2023-04-19T05:30:40;102701.00;;;8.97;72.63
53647;BME280;39550;52.230;5.194;2023-04-19T05:33:05;102691.44;;;8.94;73.28
53647;BME280;39550;52.230;5.194;2023-04-19T05:35:30;102686.09;;;8.90;72.86
53647;BME280;39550;52.230;5.194;2023-04-19T05:37:56;102701.00;;;8.97;72.96
53647;BME280;39550;52.230;5.194;2023-04-19T05:40:21;102701.00;;;8.97;72.77
53647;BME280;39550;52.230;5.194;2023-04-19T05:42:48;102700.13;;;8.96;72.84
53647;BME280;39550;52.230;5.194;2023-04-19T05:45:14;102697.50;;;8.95;72.90
53647;BME280;39550;52.230;5.194;2023-04-19T05:47:40;102705.28;;;8.96;72.85
53647;BME280;39550;52.230;5.194;2023-04-19T05:50:06;102691.19;;;8.88;73.08
53647;BME280;39550;52.230;5.194;2023-04-19T05:52:31;102697.56;;;8.96;73.01
53647;BME280;39550;52.230;5.194;2023-04-19T05:54:57;102683.81;;;8.96;72.83
53647;BME280;39550;52.230;5.194;2023-04-19T05:57:23;102694.97;;;8.96;72.19
53647;BME280;39550;52.230;5.194;2023-04-19T05:59:48;102692.34;;;8.95;72.81
53647;BME280;39550;52.230;5.194;2023-04-19T06:02:13;102690.56;;;8.94;72.49
53647;BME280;39550;52.230;5.194;2023-04-19T06:04:39;102698.28;;;8.94;72.93
53647;BME280;39550;52.230;5.194;2023-04-19T06:07:05;102701.66;;;8.93;73.09
53647;BME280;39550;52.230;5.194;2023-04-19T06:09:31;102706.88;;;8.94;71.48
53647;BME280;39550;52.230;5.194;2023-04-19T06:11:56;102705.19;;;8.95;71.70
53647;BME280;39550;52.230;5.194;2023-04-19T06:14:22;102706.81;;;8.93;71.93
53647;BME280;39550;52.230;5.194;2023-04-19T06:16:47;102706.13;;;8.97;71.60
53647;BME280;39550;52.230;5.194;2023-04-19T06:19:13;102702.63;;;8.95;72.10
53647;BME280;39550;52.230;5.194;2023-04-19T06:21:38;102706.75;;;8.91;71.90
53647;BME280;39550;52.230;5.194;2023-04-19T06:24:05;102701.72;;;8.94;71.39
53647;BME280;39550;52.230;5.194;2023-04-19T06:26:30;102706.13;;;8.97;71.73
53647;BME280;39550;52.230;5.194;2023-04-19T06:28:56;102701.91;;;8.97;71.07
53647;BME280;39550;52.230;5.194;2023-04-19T06:31:21;102706.13;;;8.97;71.09
53647;BME280;39550;52.230;5.194;2023-04-19T06:33:47;102707.03;;;8.97;70.89
53647;BME280;39550;52.230;5.194;2023-04-19T06:36:12;102707.03;;;8.97;71.26
53647;BME280;39550;52.230;5.194;2023-04-19T06:38:38;102707.91;;;8.98;70.55
53647;BME280;39550;52.230;5.194;2023-04-19T06:41:04;102708.94;;;9.01;70.87
53647;BME280;39550;52.230;5.194;2023-04-19T06:43:29;102708.03;;;9.01;70.54
53647;BME280;39550;52.230;5.194;2023-04-19T06:45:58;102708.78;;;8.98;70.87
53647;BME280;39550;52.230;5.194;2023-04-19T06:48:24;102709.66;;;8.99;70.63
53647;BME280;39550;52.230;5.194;2023-04-19T06:50:50;102713.91;;;8.98;71.23
53647;BME280;39550;52.230;5.194;2023-04-19T06:53:16;102707.91;;;8.98;70.33
53647;BME280;39550;52.230;5.194;2023-04-19T06:55:41;102709.66;;;8.99;70.35
53647;BME280;39550;52.230;5.194;2023-04-19T06:58:06;102711.44;;;9.00;70.53
53647;BME280;39550;52.230;5.194;2023-04-19T07:00:34;102716.41;;;8.97;70.35
53647;BME280;39550;52.230;5.194;2023-04-19T07:03:00;102716.41;;;8.97;70.26
53647;BME280;39550;52.230;5.194;2023-04-19T07:05:26;102713.03;;;8.98;70.24
53647;BME280;39550;52.230;5.194;2023-04-19T07:07:51;102718.19;;;8.98;69.93
53647;BME280;39550;52.230;5.194;2023-04-19T07:10:16;102715.50;;;8.95;70.07
53647;BME280;39550;52.230;5.194;2023-04-19T07:12:42;102718.19;;;8.98;69.53
53647;BME280;39550;52.230;5.194;2023-04-19T07:17:36;102715.56;;;8.96;68.70
53647;BME280;39550;52.230;5.194;2023-04-19T07:20:03;102709.66;;;8.99;69.36
53647;BME280;39550;52.230;5.194;2023-04-19T07:22:29;102717.44;;;9.00;69.51
53647;BME280;39550;52.230;5.194;2023-04-19T07:24:55;102713.03;;;8.98;69.09
53647;BME280;39550;52.230;5.194;2023-04-19T07:27:20;102709.66;;;8.99;68.68
53647;BME280;39550;52.230;5.194;2023-04-19T07:29:45;102709.66;;;8.99;68.15
53647;BME280;39550;52.230;5.194;2023-04-19T07:32:11;102708.94;;;9.01;68.78
53647;BME280;39550;52.230;5.194;2023-04-19T07:34:38;102720.81;;;8.99;67.86
53647;BME280;39550;52.230;5.194;2023-04-19T07:37:05;102706.28;;;9.00;67.22
53647;BME280;39550;52.230;5.194;2023-04-19T07:39:30;102712.19;;;8.97;66.50
53647;BME280;39550;52.230;5.194;2023-04-19T07:41:56;102713.16;;;9.01;66.17
53647;BME280;39550;52.230;5.194;2023-04-19T07:44:21;102706.28;;;9.00;65.73
53647;BME280;39550;52.230;5.194;2023-04-19T07:46:46;102699.50;;;9.02;66.47
53647;BME280;39550;52.230;5.194;2023-04-19T07:49:12;102704.66;;;9.02;66.46
53647;BME280;39550;52.230;5.194;2023-04-19T07:51:37;102705.69;;;9.06;66.05
53647;BME280;39550;52.230;5.194;2023-04-19T07:54:03;102712.56;;;9.07;66.20
53647;BME280;39550;52.230;5.194;2023-04-19T07:56:28;102702.22;;;9.05;66.82
53647;BME280;39550;52.230;5.194;2023-04-19T07:58:54;102715.97;;;9.06;64.32
53647;BME280;39550;52.230;5.194;2023-04-19T08:01:19;102710.97;;;9.09;65.40
53647;BME280;39550;52.230;5.194;2023-04-19T08:03:45;102709.19;;;9.08;64.28
53647;BME280;39550;52.230;5.194;2023-04-19T08:06:11;102716.97;;;9.09;64.92
53647;BME280;39550;52.230;5.194;2023-04-19T08:08:36;102712.72;;;9.10;61.52
53647;BME280;39550;52.230;5.194;2023-04-19T08:11:03;102705.06;;;9.11;62.90
53647;BME280;39550;52.230;5.194;2023-04-19T08:13:29;102708.56;;;9.13;63.67
53647;BME280;39550;52.230;5.194;2023-04-19T08:15:55;102712.03;;;9.14;62.37
53647;BME280;39550;52.230;5.194;2023-04-19T08:18:20;102712.13;;;9.15;63.16
53647;BME280;39550;52.230;5.194;2023-04-19T08:20:46;102705.19;;;9.14;63.07
53647;BME280;39550;52.230;5.194;2023-04-19T08:23:12;102714.75;;;9.17;62.21
53647;BME280;39550;52.230;5.194;2023-04-19T08:25:37;102708.81;;;9.18;62.06
53647;BME280;39550;52.230;5.194;2023-04-19T08:28:03;102708.84;;;9.19;60.53
53647;BME280;39550;52.230;5.194;2023-04-19T08:30:29;102703.84;;;9.23;59.38
53647;BME280;39550;52.230;5.194;2023-04-19T08:32:54;102717.56;;;9.23;64.16
53647;BME280;39550;52.230;5.194;2023-04-19T08:35:20;102709.00;;;9.23;61.17
53647;BME280;39550;52.230;5.194;2023-04-19T08:37:46;102704.72;;;9.23;63.36
53647;BME280;39550;52.230;5.194;2023-04-19T08:40:12;102705.59;;;9.24;61.48
53647;BME280;39550;52.230;5.194;2023-04-19T08:42:38;102703.97;;;9.26;61.72
53647;BME280;39550;52.230;5.194;2023-04-19T08:45:05;102698.13;;;9.30;61.33
53647;BME280;39550;52.230;5.194;2023-04-19T08:47:34;102705.84;;;9.30;60.13
53647;BME280;39550;52.230;5.194;2023-04-19T08:50:03;102705.84;;;9.30;61.07
53647;BME280;39550;52.230;5.194;2023-04-19T08:52:32;102694.69;;;9.29;59.90
53647;BME280;39550;52.230;5.194;2023-04-19T08:55:00;102697.47;;;9.34;62.68
53647;BME280;39550;52.230;5.194;2023-04-19T08:57:30;102702.59;;;9.34;57.83
53647;BME280;39550;52.230;5.194;2023-04-19T08:59:55;102695.06;;;9.38;57.61
53647;BME280;39550;52.230;5.194;2023-04-19T09:02:22;102703.69;;;9.39;57.05
53647;BME280;39550;52.230;5.194;2023-04-19T09:04:48;102683.91;;;9.38;58.40
53647;BME280;39550;52.230;5.194;2023-04-19T09:07:26;102702.88;;;9.40;58.68
53647;BME280;39550;52.230;5.194;2023-04-19T09:12:31;102698.66;;;9.42;58.71
53647;BME280;39550;52.230;5.194;2023-04-19T09:14:59;102689.94;;;9.38;58.99
53647;BME280;39550;52.230;5.194;2023-04-19T09:17:24;102686.66;;;9.43;56.62
53647;BME280;39550;52.230;5.194;2023-04-19T09:19:49;102686.75;;;9.44;59.75
53647;BME280;39550;52.230;5.194;2023-04-19T09:22:15;102690.31;;;9.48;59.23
53647;BME280;39550;52.230;5.194;2023-04-19T09:24:40;102686.13;;;9.50;58.44
53647;BME280;39550;52.230;5.194;2023-04-19T09:27:06;102688.78;;;9.51;58.12
53647;BME280;39550;52.230;5.194;2023-04-19T09:29:31;102693.09;;;9.52;59.96
53647;BME280;39550;52.230;5.194;2023-04-19T09:31:57;102687.94;;;9.52;57.71
53647;BME280;39550;52.230;5.194;2023-04-19T09:34:23;102689.00;;;9.58;58.54
53647;BME280;39550;52.230;5.194;2023-04-19T09:36:48;102685.63;;;9.59;59.08
53647;BME280;39550;52.230;5.194;2023-04-19T09:39:30;102672.75;;;9.59;57.66
53647;BME280;39550;52.230;5.194;2023-04-19T09:41:55;102683.25;;;9.63;58.92
53647;BME280;39550;52.230;5.194;2023-04-19T09:44:22;102679.00;;;9.64;57.74
53647;BME280;39550;52.230;5.194;2023-04-19T09:46:48;102672.19;;;9.66;57.71
53647;BME280;39550;52.230;5.194;2023-04-19T09:49:17;102675.72;;;9.68;58.13
53647;BME280;39550;52.230;5.194;2023-04-19T09:52:02;102673.16;;;9.68;58.61
53647;BME280;39550;52.230;5.194;2023-04-19T09:54:28;102674.13;;;9.71;58.59
53647;BME280;39550;52.230;5.194;2023-04-19T09:56:56;102673.38;;;9.74;58.49
53647;BME280;39550;52.230;5.194;2023-04-19T09:59:21;102668.25;;;9.74;57.38
53647;BME280;39550;52.230;5.194;2023-04-19T10:01:52;102671.78;;;9.76;58.84
53647;BME280;39550;52.230;5.194;2023-04-19T10:04:18;102671.78;;;9.76;58.26
53647;BME280;39550;52.230;5.194;2023-04-19T10:06:48;102677.03;;;9.79;60.17
53647;BME280;39550;52.230;5.194;2023-04-19T10:09:14;102671.09;;;9.80;58.84
53647;BME280;39550;52.230;5.194;2023-04-19T10:11:43;102669.50;;;9.84;58.60
53647;BME280;39550;52.230;5.194;2023-04-19T10:14:13;102660.97;;;9.85;59.08
53647;BME280;39550;52.230;5.194;2023-04-19T10:16:39;102653.28;;;9.86;59.61
53647;BME280;39550;52.230;5.194;2023-04-19T10:19:07;102656.03;;;9.91;59.50
53647;BME280;39550;52.230;5.194;2023-04-19T10:21:33;102653.53;;;9.93;59.26
53647;BME280;39550;52.230;5.194;2023-04-19T10:23:59;102646.75;;;9.95;60.28
53647;BME280;39550;52.230;5.194;2023-04-19T10:26:25;102657.97;;;9.97;59.19
53647;BME280;39550;52.230;5.194;2023-04-19T10:28:53;102645.09;;;9.97;59.45
53647;BME280;39550;52.230;5.194;2023-04-19T10:31:19;102640.09;;;10.00;59.33
53647;BME280;39550;52.230;5.194;2023-04-19T10:33:48;102649.56;;;10.01;59.50
53647;BME280;39550;52.230;5.194;2023-04-19T10:36:14;102646.38;;;10.07;58.24
53647;BME280;39550;52.230;5.194;2023-04-19T10:38:43;102638.81;;;10.11;58.10
53647;BME280;39550;52.230;5.194;2023-04-19T10:41:11;102630.25;;;10.12;58.13
53647;BME280;39550;52.230;5.194;2023-04-19T10:43:38;102638.91;;;10.14;58.70
53647;BME280;39550;52.230;5.194;2023-04-19T10:48:49;102634.53;;;10.12;58.98
53647;BME280;39550;52.230;5.194;2023-04-19T10:51:21;102639.97;;;10.19;59.11
53647;BME280;39550;52.230;5.194;2023-04-19T10:53:51;102629.72;;;10.21;58.60
53647;BME280;39550;52.230;5.194;2023-04-19T10:56:20;102628.06;;;10.23;58.07
53647;BME280;39550;52.230;5.194;2023-04-19T11:01:39;102623.81;;;10.23;58.33
53647;BME280;39550;52.230;5.194;2023-04-19T11:04:05;102620.44;;;10.25;57.66
53647;BME280;39550;52.230;5.194;2023-04-19T11:06:35;102626.44;;;10.25;57.73
53647;BME280;39550;52.230;5.194;2023-04-19T11:09:01;102626.50;;;10.27;57.35
53647;BME280;39550;52.230;5.194;2023-04-19T11:11:33;102621.47;;;10.30;57.10
53647;BME280;39550;52.230;5.194;2023-04-19T11:14:00;102609.47;;;10.30;56.60
53647;BME280;39550;52.230;5.194;2023-04-19T11:16:27;102596.41;;;10.26;57.26
53647;BME280;39550;52.230;5.194;2023-04-19T11:18:52;102601.81;;;10.32;56.54
53647;BME280;39550;52.230;5.194;2023-04-19T11:21:18;102600.13;;;10.34;56.68
53647;BME280;39550;52.230;5.194;2023-04-19T11:23:44;102603.69;;;10.36;55.78
53647;BME280;39550;52.230;5.194;2023-04-19T11:26:12;102592.53;;;10.37;56.40
53647;BME280;39550;52.230;5.194;2023-04-19T11:28:38;102589.97;;;10.37;54.42
53647;BME280;39550;52.230;5.194;2023-04-19T11:31:04;102585.81;;;10.41;55.46
53647;BME280;39550;52.230;5.194;2023-04-19T11:33:33;102585.06;;;10.43;54.82
53647;BME280;39550;52.230;5.194;2023-04-19T11:35:59;102586.81;;;10.44;53.68
53647;BME280;39550;52.230;5.194;2023-04-19T11:38:28;102584.47;;;10.50;53.38
53647;BME280;39550;52.230;5.194;2023-04-19T11:41:00;102573.31;;;10.51;52.33
53647;BME280;39550;52.230;5.194;2023-04-19T11:43:35;102571.81;;;10.56;52.60
53647;BME280;39550;52.230;5.194;2023-04-19T11:46:08;102570.25;;;10.62;52.44
53647;BME280;39550;52.230;5.194;2023-04-19T11:48:34;102568.81;;;10.70;51.79
53647;BME280;39550;52.230;5.194;2023-04-19T11:51:00;102575.34;;;10.84;49.18
53647;BME280;39550;52.230;5.194;2023-04-19T11:53:27;102550.69;;;10.93;49.70
53647;BME280;39550;52.230;5.194;2023-04-19T11:55:57;102551.56;;;10.93;50.75
53647;BME280;39550;52.230;5.194;2023-04-19T11:58:41;102554.97;;;10.92;50.59
53647;BME280;39550;52.230;5.194;2023-04-19T12:01:21;102545.53;;;10.93;50.68
53647;BME280;39550;52.230;5.194;2023-04-19T12:03:49;102530.88;;;10.92;51.24
53647;BME280;39550;52.230;5.194;2023-04-19T12:06:29;102551.75;;;10.99;52.19
53647;BME280;39550;52.230;5.194;2023-04-19T12:08:57;102547.19;;;11.16;49.56
53647;BME280;39550;52.230;5.194;2023-04-19T12:11:25;102545.59;;;11.21;51.41
53647;BME280;39550;52.230;5.194;2023-04-19T12:14:14;102548.09;;;11.18;50.50
53647;BME280;39550;52.230;5.194;2023-04-19T12:16:40;102543.88;;;11.20;51.49
53647;BME280;39550;52.230;5.194;2023-04-19T12:29:19;102540.25;;;11.41;50.44
53647;BME280;39550;52.230;5.194;2023-04-19T12:31:44;102540.63;;;11.53;51.01
53647;BME280;39550;52.230;5.194;2023-04-19T12:34:10;102533.78;;;11.55;50.09
53647;BME280;39550;52.230;5.194;2023-04-19T12:36:35;102537.56;;;11.67;50.49
53647;BME280;39550;52.230;5.194;2023-04-19T12:39:00;102528.22;;;11.70;50.46
53647;BME280;39550;52.230;5.194;2023-04-19T12:41:25;102545.69;;;11.79;50.61
53647;BME280;39550;52.230;5.194;2023-04-19T12:43:51;102532.88;;;11.82;50.55
53647;BME280;39550;52.230;5.194;2023-04-19T12:46:16;102533.06;;;11.88;50.57
53647;BME280;39550;52.230;5.194;2023-04-19T12:48:41;102525.50;;;11.95;51.52
53647;BME280;39550;52.230;5.194;2023-04-19T12:51:07;102524.16;;;12.06;48.91
53647;BME280;39550;52.230;5.194;2023-04-19T12:53:33;102514.84;;;12.13;50.56
53647;BME280;39550;52.230;5.194;2023-04-19T12:55:58;102526.09;;;12.15;50.31
53647;BME280;39550;52.230;5.194;2023-04-19T12:58:24;102527.25;;;12.24;50.04
53647;BME280;39550;52.230;5.194;2023-04-19T13:00:50;102519.34;;;12.50;46.54
53647;BME280;39550;52.230;5.194;2023-04-19T13:03:16;102511.25;;;12.71;45.06
53647;BME280;39550;52.230;5.194;2023-04-19T13:05:41;102501.09;;;12.79;44.63
53647;BME280;39550;52.230;5.194;2023-04-19T13:08:06;102493.47;;;12.84;45.97
53647;BME280;39550;52.230;5.194;2023-04-19T13:10:31;102492.00;;;12.95;45.48
53647;BME280;39550;52.230;5.194;2023-04-19T13:12:57;102488.63;;;12.98;45.75